sensor_id;sensor_type;location;lat;lon;timestamp;temperature;humidity
27900;DHT22;15243;50.726;7.080;2022-12-07T00:01:22;4.70;99.90
27900;DHT22;15243;50.726;7.080;2022-12-07T00:03:52;4.60;99.90
27900;DHT22;15243;50.726;7.080;2022-12-07T00:06:20;4.60;99.90
27900;DHT22;15243;50.726;7.080;2022-12-07T00:08:47;4.60;99.90
27900;DHT22;15243;50.726;7.080;2022-12-07T00:11:17;4.60;99.90
27900;DHT22;15243;50.726;7.080;2022-12-07T00:13:45;4.60;99.90
27900;DHT22;15243;50.726;7.080;2022-12-07T00:16:16;4.60;99.90
27900;DHT22;15243;50.726;7.080;2022-12-07T00:18:44;4.70;99.90
27900;DHT22;15243;50.726;7.080;2022-12-07T00:21:17;4.80;99.90
27900;DHT22;15243;50.726;7.080;2022-12-07T00:23:46;4.80;99.90
27900;DHT22;15243;50.726;7.080;2022-12-07T00:26:23;4.80;99.90
27900;DHT22;15243;50.726;7.080;2022-12-07T00:28:52;4.80;99.90
27900;DHT22;15243;50.726;7.080;2022-12-07T00:31:21;4.70;99.90
27900;DHT22;15243;50.726;7.080;2022-12-07T00:33:49;4.80;99.90
27900;DHT22;15243;50.726;7.080;2022-12-07T00:36:18;4.70;99.90
27900;DHT22;15243;50.726;7.080;2022-12-07T00:38:53;4.80;99.90
27900;DHT22;15243;50.726;7.080;2022-12-07T00:41:23;4.80;99.90
27900;DHT22;15243;50.726;7.080;2022-12-07T00:43:50;4.90;99.90
27900;DHT22;15243;50.726;7.080;2022-12-07T00:46:19;4.90;99.90
27900;DHT22;15243;50.726;7.080;2022-12-07T00:48:47;4.80;99.90
27900;DHT22;15243;50.726;7.080;2022-12-07T00:51:15;4.80;99.90
27900;DHT22;15243;50.726;7.080;2022-12-07T00:53:43;4.80;99.90
27900;DHT22;15243;50.726;7.080;2022-12-07T00:56:18;4.90;99.90
27900;DHT22;15243;50.726;7.080;2022-12-07T00:58:57;4.90;99.90
27900;DHT22;15243;50.726;7.080;2022-12-07T01:01:26;4.80;99.90
27900;DHT22;15243;50.726;7.080;2022-12-07T01:03:53;4.90;99.90
27900;DHT22;15243;50.726;7.080;2022-12-07T01:06:21;4.90;99.90
27900;DHT22;15243;50.726;7.080;2022-12-07T01:08:49;4.90;99.90
27900;DHT22;15243;50.726;7.080;2022-12-07T01:11:19;4.80;99.90
27900;DHT22;15243;50.726;7.080;2022-12-07T01:13:47;4.90;99.90
27900;DHT22;15243;50.726;7.080;2022-12-07T01:16:16;4.90;99.90
27900;DHT22;15243;50.726;7.080;2022-12-07T01:18:47;4.80;99.90
27900;DHT22;15243;50.726;7.080;2022-12-07T01:21:16;4.90;99.90
27900;DHT22;15243;50.726;7.080;2022-12-07T01:23:43;4.80;99.90
27900;DHT22;15243;50.726;7.080;2022-12-07T01:26:13;4.80;99.90
27900;DHT22;15243;50.726;7.080;2022-12-07T01:28:40;4.80;99.90
27900;DHT22;15243;50.726;7.080;2022-12-07T01:31:16;4.80;99.90
27900;DHT22;15243;50.726;7.080;2022-12-07T01:33:48;4.80;99.90
27900;DHT22;15243;50.726;7.080;2022-12-07T01:36:26;4.80;99.90
27900;DHT22;15243;50.726;7.080;2022-12-07T01:38:59;5.00;99.90
27900;DHT22;15243;50.726;7.080;2022-12-07T01:41:29;4.90;99.90
27900;DHT22;15243;50.726;7.080;2022-12-07T01:44:10;5.10;99.90
27900;DHT22;15243;50.726;7.080;2022-12-07T01:46:38;5.00;99.90
27900;DHT22;15243;50.726;7.080;2022-12-07T01:49:07;5.10;99.90
27900;DHT22;15243;50.726;7.080;2022-12-07T01:51:36;5.10;99.90
27900;DHT22;15243;50.726;7.080;2022-12-07T01:54:04;5.10;99.90
27900;DHT22;15243;50.726;7.080;2022-12-07T01:56:32;5.00;99.90
27900;DHT22;15243;50.726;7.080;2022-12-07T01:59:00;5.10;99.90
27900;DHT22;15243;50.726;7.080;2022-12-07T02:01:27;5.10;99.90
27900;DHT22;15243;50.726;7.080;2022-12-07T02:03:54;5.10;99.90
27900;DHT22;15243;50.726;7.080;2022-12-07T02:06:24;5.10;99.90
27900;DHT22;15243;50.726;7.080;2022-12-07T02:08:51;5.00;99.90
27900;DHT22;15243;50.726;7.080;2022-12-07T02:11:19;5.00;99.90
27900;DHT22;15243;50.726;7.080;2022-12-07T02:13:47;5.00;99.90
27900;DHT22;15243;50.726;7.080;2022-12-07T02:21:59;5.00;99.90
27900;DHT22;15243;50.726;7.080;2022-12-07T02:30:11;5.00;99.90
27900;DHT22;15243;50.726;7.080;2022-12-07T02:33:01;5.10;99.90
27900;DHT22;15243;50.726;7.080;2022-12-07T02:40:57;5.00;99.90
27900;DHT22;15243;50.726;7.080;2022-12-07T02:43:54;4.90;99.90
27900;DHT22;15243;50.726;7.080;2022-12-07T02:46:28;5.10;99.90
27900;DHT22;15243;50.726;7.080;2022-12-07T02:48:57;5.10;99.90
27900;DHT22;15243;50.726;7.080;2022-12-07T02:51:30;5.10;99.90
27900;DHT22;15243;50.726;7.080;2022-12-07T02:53:57;5.10;99.90
27900;DHT22;15243;50.726;7.080;2022-12-07T02:56:43;5.10;99.90
27900;DHT22;15243;50.726;7.080;2022-12-07T03:16:14;5.10;99.90
27900;DHT22;15243;50.726;7.080;2022-12-07T03:18:48;5.10;99.90
27900;DHT22;15243;50.726;7.080;2022-12-07T03:21:19;5.10;99.90
27900;DHT22;15243;50.726;7.080;2022-12-07T03:23:50;5.00;99.90
27900;DHT22;15243;50.726;7.080;2022-12-07T03:26:19;5.10;99.90
27900;DHT22;15243;50.726;7.080;2022-12-07T03:28:52;5.10;99.90
27900;DHT22;15243;50.726;7.080;2022-12-07T03:31:36;5.10;99.90
27900;DHT22;15243;50.726;7.080;2022-12-07T03:34:31;5.00;99.90
27900;DHT22;15243;50.726;7.080;2022-12-07T03:37:04;4.90;99.90
27900;DHT22;15243;50.726;7.080;2022-12-07T03:39:44;5.00;99.90
27900;DHT22;15243;50.726;7.080;2022-12-07T03:42:12;5.00;99.90
27900;DHT22;15243;50.726;7.080;2022-12-07T03:44:40;5.00;99.90
27900;DHT22;15243;50.726;7.080;2022-12-07T03:47:26;5.00;99.90
27900;DHT22;15243;50.726;7.080;2022-12-07T03:50:15;5.00;99.90
27900;DHT22;15243;50.726;7.080;2022-12-07T03:55:43;5.00;99.90
27900;DHT22;15243;50.726;7.080;2022-12-07T03:58:17;5.10;99.90
27900;DHT22;15243;50.726;7.080;2022-12-07T04:00:45;5.00;99.90
27900;DHT22;15243;50.726;7.080;2022-12-07T04:03:12;4.90;99.90
27900;DHT22;15243;50.726;7.080;2022-12-07T04:05:39;4.90;99.90
27900;DHT22;15243;50.726;7.080;2022-12-07T04:08:06;4.90;99.90
27900;DHT22;15243;50.726;7.080;2022-12-07T04:10:32;4.90;99.90
27900;DHT22;15243;50.726;7.080;2022-12-07T04:12:59;5.00;99.90
27900;DHT22;15243;50.726;7.080;2022-12-07T04:15:26;5.00;99.90
27900;DHT22;15243;50.726;7.080;2022-12-07T04:17:53;5.00;99.90
27900;DHT22;15243;50.726;7.080;2022-12-07T04:20:21;5.00;99.90
27900;DHT22;15243;50.726;7.080;2022-12-07T04:22:48;4.90;99.90
27900;DHT22;15243;50.726;7.080;2022-12-07T04:25:15;4.90;99.90
27900;DHT22;15243;50.726;7.080;2022-12-07T04:27:42;4.90;99.90
27900;DHT22;15243;50.726;7.080;2022-12-07T04:30:09;4.90;99.90
27900;DHT22;15243;50.726;7.080;2022-12-07T04:32:36;4.90;99.90
27900;DHT22;15243;50.726;7.080;2022-12-07T04:35:04;4.90;99.90
27900;DHT22;15243;50.726;7.080;2022-12-07T04:37:31;4.90;99.90
27900;DHT22;15243;50.726;7.080;2022-12-07T04:39:58;4.90;99.90
27900;DHT22;15243;50.726;7.080;2022-12-07T04:42:25;4.90;99.90
27900;DHT22;15243;50.726;7.080;2022-12-07T04:44:52;4.80;99.90
27900;DHT22;15243;50.726;7.080;2022-12-07T04:47:18;4.90;99.90
27900;DHT22;15243;50.726;7.080;2022-12-07T04:49:45;4.80;99.90
27900;DHT22;15243;50.726;7.080;2022-12-07T04:52:12;4.90;99.90
27900;DHT22;15243;50.726;7.080;2022-12-07T04:54:39;4.80;99.90
27900;DHT22;15243;50.726;7.080;2022-12-07T04:57:06;4.80;99.90
27900;DHT22;15243;50.726;7.080;2022-12-07T04:59:32;4.90;99.90
27900;DHT22;15243;50.726;7.080;2022-12-07T05:01:59;4.80;99.90
27900;DHT22;15243;50.726;7.080;2022-12-07T05:04:26;4.80;99.90
27900;DHT22;15243;50.726;7.080;2022-12-07T05:06:53;4.80;99.90
27900;DHT22;15243;50.726;7.080;2022-12-07T05:09:20;4.80;99.90
27900;DHT22;15243;50.726;7.080;2022-12-07T05:11:46;4.70;99.90
27900;DHT22;15243;50.726;7.080;2022-12-07T05:14:19;4.80;99.90
27900;DHT22;15243;50.726;7.080;2022-12-07T05:16:48;4.80;99.90
27900;DHT22;15243;50.726;7.080;2022-12-07T05:19:17;4.90;99.90
27900;DHT22;15243;50.726;7.080;2022-12-07T05:21:44;4.90;99.90
27900;DHT22;15243;50.726;7.080;2022-12-07T05:24:13;4.90;99.90
27900;DHT22;15243;50.726;7.080;2022-12-07T05:26:40;5.00;99.90
27900;DHT22;15243;50.726;7.080;2022-12-07T05:29:07;4.90;99.90
27900;DHT22;15243;50.726;7.080;2022-12-07T05:31:34;4.80;99.90
27900;DHT22;15243;50.726;7.080;2022-12-07T05:34:01;4.80;99.90
27900;DHT22;15243;50.726;7.080;2022-12-07T05:36:28;4.80;99.90
27900;DHT22;15243;50.726;7.080;2022-12-07T05:38:57;4.80;99.90
27900;DHT22;15243;50.726;7.080;2022-12-07T05:41:24;4.80;99.90
27900;DHT22;15243;50.726;7.080;2022-12-07T05:44:10;4.70;99.90
27900;DHT22;15243;50.726;7.080;2022-12-07T05:46:36;4.70;99.90
27900;DHT22;15243;50.726;7.080;2022-12-07T05:49:03;4.60;99.90
27900;DHT22;15243;50.726;7.080;2022-12-07T05:51:30;4.60;99.90
27900;DHT22;15243;50.726;7.080;2022-12-07T05:53:57;4.60;99.90
27900;DHT22;15243;50.726;7.080;2022-12-07T05:56:24;4.60;99.90
27900;DHT22;15243;50.726;7.080;2022-12-07T05:58:53;4.60;99.90
27900;DHT22;15243;50.726;7.080;2022-12-07T06:01:41;4.60;99.90
27900;DHT22;15243;50.726;7.080;2022-12-07T06:04:08;4.60;99.90
27900;DHT22;15243;50.726;7.080;2022-12-07T06:06:35;4.60;99.90
27900;DHT22;15243;50.726;7.080;2022-12-07T06:09:04;4.70;99.90
27900;DHT22;15243;50.726;7.080;2022-12-07T06:11:31;4.70;99.90
27900;DHT22;15243;50.726;7.080;2022-12-07T06:14:16;4.70;99.90
27900;DHT22;15243;50.726;7.080;2022-12-07T06:16:43;4.60;99.90
27900;DHT22;15243;50.726;7.080;2022-12-07T06:19:10;4.70;99.90
27900;DHT22;15243;50.726;7.080;2022-12-07T06:21:37;4.60;99.90
27900;DHT22;15243;50.726;7.080;2022-12-07T06:24:05;4.70;99.90
27900;DHT22;15243;50.726;7.080;2022-12-07T06:26:32;4.70;99.90
27900;DHT22;15243;50.726;7.080;2022-12-07T06:28:58;4.80;99.90
27900;DHT22;15243;50.726;7.080;2022-12-07T06:31:25;4.70;99.90
27900;DHT22;15243;50.726;7.080;2022-12-07T06:34:06;4.70;99.90
27900;DHT22;15243;50.726;7.080;2022-12-07T06:36:33;4.60;99.90
27900;DHT22;15243;50.726;7.080;2022-12-07T06:39:00;4.60;99.90
27900;DHT22;15243;50.726;7.080;2022-12-07T06:41:27;4.60;99.90
27900;DHT22;15243;50.726;7.080;2022-12-07T06:43:54;4.50;99.90
27900;DHT22;15243;50.726;7.080;2022-12-07T06:46:22;4.50;99.90
27900;DHT22;15243;50.726;7.080;2022-12-07T06:48:49;4.60;99.90
27900;DHT22;15243;50.726;7.080;2022-12-07T06:51:16;4.60;99.90
27900;DHT22;15243;50.726;7.080;2022-12-07T06:53:43;4.60;99.90
27900;DHT22;15243;50.726;7.080;2022-12-07T06:56:10;4.60;99.90
27900;DHT22;15243;50.726;7.080;2022-12-07T06:58:37;4.60;99.90
27900;DHT22;15243;50.726;7.080;2022-12-07T07:01:12;4.50;99.90
27900;DHT22;15243;50.726;7.080;2022-12-07T07:03:39;4.50;99.90
27900;DHT22;15243;50.726;7.080;2022-12-07T07:06:07;4.50;99.90
27900;DHT22;15243;50.726;7.080;2022-12-07T07:08:34;4.50;99.90
27900;DHT22;15243;50.726;7.080;2022-12-07T07:11:02;4.50;99.90
27900;DHT22;15243;50.726;7.080;2022-12-07T07:13:29;4.50;99.90
27900;DHT22;15243;50.726;7.080;2022-12-07T07:15:56;4.60;99.90
27900;DHT22;15243;50.726;7.080;2022-12-07T07:18:23;4.70;99.90
27900;DHT22;15243;50.726;7.080;2022-12-07T07:20:51;4.60;99.90
27900;DHT22;15243;50.726;7.080;2022-12-07T07:23:19;4.50;99.90
27900;DHT22;15243;50.726;7.080;2022-12-07T07:25:46;4.50;99.90
27900;DHT22;15243;50.726;7.080;2022-12-07T07:28:13;4.50;99.90
27900;DHT22;15243;50.726;7.080;2022-12-07T07:30:40;4.50;99.90
27900;DHT22;15243;50.726;7.080;2022-12-07T07:33:07;4.50;99.90
27900;DHT22;15243;50.726;7.080;2022-12-07T07:35:34;4.50;99.90
27900;DHT22;15243;50.726;7.080;2022-12-07T07:38:02;4.40;99.90
27900;DHT22;15243;50.726;7.080;2022-12-07T07:40:29;4.40;99.90
27900;DHT22;15243;50.726;7.080;2022-12-07T07:43:02;4.60;99.90
27900;DHT22;15243;50.726;7.080;2022-12-07T07:45:29;4.60;99.90
27900;DHT22;15243;50.726;7.080;2022-12-07T07:47:56;4.50;99.90
27900;DHT22;15243;50.726;7.080;2022-12-07T07:50:23;4.50;99.90
27900;DHT22;15243;50.726;7.080;2022-12-07T07:52:50;4.60;99.90
27900;DHT22;15243;50.726;7.080;2022-12-07T07:55:17;4.60;99.90
27900;DHT22;15243;50.726;7.080;2022-12-07T07:57:44;4.50;99.90
27900;DHT22;15243;50.726;7.080;2022-12-07T08:00:17;4.50;99.90
27900;DHT22;15243;50.726;7.080;2022-12-07T08:02:44;4.50;99.90
27900;DHT22;15243;50.726;7.080;2022-12-07T08:05:13;4.50;99.90
27900;DHT22;15243;50.726;7.080;2022-12-07T08:07:40;4.60;99.90
27900;DHT22;15243;50.726;7.080;2022-12-07T08:10:10;4.60;99.90
27900;DHT22;15243;50.726;7.080;2022-12-07T08:12:38;4.70;99.90
27900;DHT22;15243;50.726;7.080;2022-12-07T08:15:27;4.70;99.90
27900;DHT22;15243;50.726;7.080;2022-12-07T08:17:55;4.80;99.90
27900;DHT22;15243;50.726;7.080;2022-12-07T08:20:22;4.70;99.90
27900;DHT22;15243;50.726;7.080;2022-12-07T08:22:49;4.70;99.90
27900;DHT22;15243;50.726;7.080;2022-12-07T08:25:17;4.70;99.90
27900;DHT22;15243;50.726;7.080;2022-12-07T08:27:44;4.70;99.90
27900;DHT22;15243;50.726;7.080;2022-12-07T08:30:11;4.70;99.90
27900;DHT22;15243;50.726;7.080;2022-12-07T08:32:38;4.70;99.90
27900;DHT22;15243;50.726;7.080;2022-12-07T08:35:08;4.70;99.90
27900;DHT22;15243;50.726;7.080;2022-12-07T08:37:35;4.80;99.90
27900;DHT22;15243;50.726;7.080;2022-12-07T08:40:04;4.90;99.90
27900;DHT22;15243;50.726;7.080;2022-12-07T08:42:31;4.90;99.90
27900;DHT22;15243;50.726;7.080;2022-12-07T08:45:06;5.10;99.90
27900;DHT22;15243;50.726;7.080;2022-12-07T08:47:36;4.90;99.90
27900;DHT22;15243;50.726;7.080;2022-12-07T08:50:06;5.10;99.90
27900;DHT22;15243;50.726;7.080;2022-12-07T08:52:35;5.10;99.90
27900;DHT22;15243;50.726;7.080;2022-12-07T08:55:05;5.10;99.90
27900;DHT22;15243;50.726;7.080;2022-12-07T08:57:34;5.00;99.90
27900;DHT22;15243;50.726;7.080;2022-12-07T09:00:03;5.00;99.90
27900;DHT22;15243;50.726;7.080;2022-12-07T09:02:31;5.00;99.90
27900;DHT22;15243;50.726;7.080;2022-12-07T09:04:58;5.10;99.90
27900;DHT22;15243;50.726;7.080;2022-12-07T09:07:25;5.10;99.90
27900;DHT22;15243;50.726;7.080;2022-12-07T09:09:52;5.00;99.90
27900;DHT22;15243;50.726;7.080;2022-12-07T09:12:19;5.10;99.90
27900;DHT22;15243;50.726;7.080;2022-12-07T09:14:46;5.10;99.90
27900;DHT22;15243;50.726;7.080;2022-12-07T09:17:13;5.10;99.90
27900;DHT22;15243;50.726;7.080;2022-12-07T09:19:40;5.10;99.90
27900;DHT22;15243;50.726;7.080;2022-12-07T09:22:08;5.10;99.90
27900;DHT22;15243;50.726;7.080;2022-12-07T09:24:35;5.10;99.90
27900;DHT22;15243;50.726;7.080;2022-12-07T09:27:02;5.10;99.90
27900;DHT22;15243;50.726;7.080;2022-12-07T09:29:29;5.20;99.90
27900;DHT22;15243;50.726;7.080;2022-12-07T09:31:56;5.20;99.90
27900;DHT22;15243;50.726;7.080;2022-12-07T09:34:22;5.20;99.90
27900;DHT22;15243;50.726;7.080;2022-12-07T09:36:50;5.10;99.90
27900;DHT22;15243;50.726;7.080;2022-12-07T09:39:17;5.30;99.90
27900;DHT22;15243;50.726;7.080;2022-12-07T09:41:44;5.20;99.90
27900;DHT22;15243;50.726;7.080;2022-12-07T09:44:16;5.20;99.90
27900;DHT22;15243;50.726;7.080;2022-12-07T09:46:44;5.40;99.90
27900;DHT22;15243;50.726;7.080;2022-12-07T09:49:17;5.40;99.90
27900;DHT22;15243;50.726;7.080;2022-12-07T09:51:44;5.50;99.90
27900;DHT22;15243;50.726;7.080;2022-12-07T09:54:16;5.60;99.90
27900;DHT22;15243;50.726;7.080;2022-12-07T09:56:43;5.70;99.90
27900;DHT22;15243;50.726;7.080;2022-12-07T09:59:16;5.70;99.90
27900;DHT22;15243;50.726;7.080;2022-12-07T10:01:46;5.80;99.90
27900;DHT22;15243;50.726;7.080;2022-12-07T10:04:15;5.60;99.90
27900;DHT22;15243;50.726;7.080;2022-12-07T10:06:43;5.70;99.90
27900;DHT22;15243;50.726;7.080;2022-12-07T10:09:11;5.80;99.90
27900;DHT22;15243;50.726;7.080;2022-12-07T10:14:29;5.90;99.90
27900;DHT22;15243;50.726;7.080;2022-12-07T10:17:29;5.70;99.90
27900;DHT22;15243;50.726;7.080;2022-12-07T10:23:18;5.90;99.90
27900;DHT22;15243;50.726;7.080;2022-12-07T10:25:45;5.80;99.90
27900;DHT22;15243;50.726;7.080;2022-12-07T10:28:16;6.00;99.90
27900;DHT22;15243;50.726;7.080;2022-12-07T10:31:03;6.20;99.90
27900;DHT22;15243;50.726;7.080;2022-12-07T10:39:04;6.30;99.90
27900;DHT22;15243;50.726;7.080;2022-12-07T10:41:56;6.20;99.90
27900;DHT22;15243;50.726;7.080;2022-12-07T10:44:28;6.20;99.90
27900;DHT22;15243;50.726;7.080;2022-12-07T10:57:56;6.20;99.90
27900;DHT22;15243;50.726;7.080;2022-12-07T11:00:36;6.20;99.90
27900;DHT22;15243;50.726;7.080;2022-12-07T11:05:57;6.40;99.90
27900;DHT22;15243;50.726;7.080;2022-12-07T11:09:00;6.40;99.90
27900;DHT22;15243;50.726;7.080;2022-12-07T11:11:32;6.30;99.90
27900;DHT22;15243;50.726;7.080;2022-12-07T11:22:23;6.30;99.90
27900;DHT22;15243;50.726;7.080;2022-12-07T11:27:33;6.30;99.90
27900;DHT22;15243;50.726;7.080;2022-12-07T11:30:06;6.60;99.90
27900;DHT22;15243;50.726;7.080;2022-12-07T11:32:58;6.40;99.90
27900;DHT22;15243;50.726;7.080;2022-12-07T11:35:40;6.40;99.90
27900;DHT22;15243;50.726;7.080;2022-12-07T11:38:20;6.70;99.90
27900;DHT22;15243;50.726;7.080;2022-12-07T11:41:01;6.60;99.90
27900;DHT22;15243;50.726;7.080;2022-12-07T11:46:18;6.50;99.90
27900;DHT22;15243;50.726;7.080;2022-12-07T11:48:49;6.50;99.90
27900;DHT22;15243;50.726;7.080;2022-12-07T11:51:20;6.90;99.90
27900;DHT22;15243;50.726;7.080;2022-12-07T11:53:58;6.90;99.90
27900;DHT22;15243;50.726;7.080;2022-12-07T11:56:28;7.00;99.90
27900;DHT22;15243;50.726;7.080;2022-12-07T12:02:13;7.10;99.90
27900;DHT22;15243;50.726;7.080;2022-12-07T12:04:51;7.00;99.90
27900;DHT22;15243;50.726;7.080;2022-12-07T12:07:23;7.00;99.90
27900;DHT22;15243;50.726;7.080;2022-12-07T12:10:21;7.10;99.90
27900;DHT22;15243;50.726;7.080;2022-12-07T12:16:20;7.20;99.90
27900;DHT22;15243;50.726;7.080;2022-12-07T12:21:32;7.00;99.90
27900;DHT22;15243;50.726;7.080;2022-12-07T12:24:27;6.90;99.90
27900;DHT22;15243;50.726;7.080;2022-12-07T12:27:14;7.00;99.90
27900;DHT22;15243;50.726;7.080;2022-12-07T12:29:43;6.80;99.90
27900;DHT22;15243;50.726;7.080;2022-12-07T12:32:17;6.70;99.90
27900;DHT22;15243;50.726;7.080;2022-12-07T12:37:40;6.50;99.90
27900;DHT22;15243;50.726;7.080;2022-12-07T12:45:22;6.30;99.90
27900;DHT22;15243;50.726;7.080;2022-12-07T12:48:02;6.20;99.90
27900;DHT22;15243;50.726;7.080;2022-12-07T12:50:37;6.20;99.90
27900;DHT22;15243;50.726;7.080;2022-12-07T12:53:24;6.20;99.90
27900;DHT22;15243;50.726;7.080;2022-12-07T12:56:26;6.10;99.90
27900;DHT22;15243;50.726;7.080;2022-12-07T13:04:40;6.10;99.90
27900;DHT22;15243;50.726;7.080;2022-12-07T13:15:48;6.20;99.90
27900;DHT22;15243;50.726;7.080;2022-12-07T13:31:37;6.00;99.90
27900;DHT22;15243;50.726;7.080;2022-12-07T13:34:32;5.90;99.90
27900;DHT22;15243;50.726;7.080;2022-12-07T13:37:12;6.10;99.90
27900;DHT22;15243;50.726;7.080;2022-12-07T13:40:25;6.10;99.90
27900;DHT22;15243;50.726;7.080;2022-12-07T13:43:03;6.10;99.90
27900;DHT22;15243;50.726;7.080;2022-12-07T13:45:32;6.10;99.90
27900;DHT22;15243;50.726;7.080;2022-12-07T13:48:31;6.00;99.90
27900;DHT22;15243;50.726;7.080;2022-12-07T13:51:03;6.00;99.90
27900;DHT22;15243;50.726;7.080;2022-12-07T13:53:30;6.00;99.90
27900;DHT22;15243;50.726;7.080;2022-12-07T13:56:01;5.90;99.90
27900;DHT22;15243;50.726;7.080;2022-12-07T13:58:30;6.10;99.90
27900;DHT22;15243;50.726;7.080;2022-12-07T14:00:59;6.20;99.90
27900;DHT22;15243;50.726;7.080;2022-12-07T14:03:33;6.10;99.90
27900;DHT22;15243;50.726;7.080;2022-12-07T14:06:26;5.90;99.90
27900;DHT22;15243;50.726;7.080;2022-12-07T14:09:08;5.70;99.90
27900;DHT22;15243;50.726;7.080;2022-12-07T14:11:35;5.60;99.90
27900;DHT22;15243;50.726;7.080;2022-12-07T14:14:05;5.60;99.90
27900;DHT22;15243;50.726;7.080;2022-12-07T14:16:35;5.70;99.90
27900;DHT22;15243;50.726;7.080;2022-12-07T14:19:04;5.60;99.90
27900;DHT22;15243;50.726;7.080;2022-12-07T14:21:33;5.60;99.90
27900;DHT22;15243;50.726;7.080;2022-12-07T14:26:38;5.50;99.90
27900;DHT22;15243;50.726;7.080;2022-12-07T14:29:38;5.40;99.90
27900;DHT22;15243;50.726;7.080;2022-12-07T14:32:23;5.40;99.90
27900;DHT22;15243;50.726;7.080;2022-12-07T14:34:55;5.40;99.90
27900;DHT22;15243;50.726;7.080;2022-12-07T14:37:23;5.40;99.90
27900;DHT22;15243;50.726;7.080;2022-12-07T14:39:50;5.30;99.90
27900;DHT22;15243;50.726;7.080;2022-12-07T14:42:17;5.30;99.90
27900;DHT22;15243;50.726;7.080;2022-12-07T14:44:44;5.20;99.90
27900;DHT22;15243;50.726;7.080;2022-12-07T14:47:11;5.30;99.90
27900;DHT22;15243;50.726;7.080;2022-12-07T14:49:58;5.30;99.90
27900;DHT22;15243;50.726;7.080;2022-12-07T14:52:31;5.30;99.90
27900;DHT22;15243;50.726;7.080;2022-12-07T14:57:49;5.30;99.90
27900;DHT22;15243;50.726;7.080;2022-12-07T15:00:17;5.40;99.90
27900;DHT22;15243;50.726;7.080;2022-12-07T15:02:45;5.40;99.90
27900;DHT22;15243;50.726;7.080;2022-12-07T15:05:13;5.50;99.90
27900;DHT22;15243;50.726;7.080;2022-12-07T15:07:42;5.40;99.90
27900;DHT22;15243;50.726;7.080;2022-12-07T15:10:25;5.30;99.90
27900;DHT22;15243;50.726;7.080;2022-12-07T15:12:57;5.20;99.90
27900;DHT22;15243;50.726;7.080;2022-12-07T15:15:48;5.30;99.90
27900;DHT22;15243;50.726;7.080;2022-12-07T15:18:16;5.30;99.90
27900;DHT22;15243;50.726;7.080;2022-12-07T15:20:44;5.40;99.90
27900;DHT22;15243;50.726;7.080;2022-12-07T15:23:11;5.30;99.90
27900;DHT22;15243;50.726;7.080;2022-12-07T15:25:46;5.20;99.90
27900;DHT22;15243;50.726;7.080;2022-12-07T15:28:14;5.20;99.90
27900;DHT22;15243;50.726;7.080;2022-12-07T15:30:42;5.20;99.90
27900;DHT22;15243;50.726;7.080;2022-12-07T15:33:10;5.20;99.90
27900;DHT22;15243;50.726;7.080;2022-12-07T15:35:43;5.20;99.90
27900;DHT22;15243;50.726;7.080;2022-12-07T15:38:11;5.30;99.90
27900;DHT22;15243;50.726;7.080;2022-12-07T15:41:18;5.30;99.90
27900;DHT22;15243;50.726;7.080;2022-12-07T15:43:45;5.30;99.90
27900;DHT22;15243;50.726;7.080;2022-12-07T15:46:36;5.40;99.90
27900;DHT22;15243;50.726;7.080;2022-12-07T15:49:06;5.40;99.90
27900;DHT22;15243;50.726;7.080;2022-12-07T15:51:33;5.40;99.90
27900;DHT22;15243;50.726;7.080;2022-12-07T15:54:00;5.40;99.90
27900;DHT22;15243;50.726;7.080;2022-12-07T15:56:28;5.30;99.90
27900;DHT22;15243;50.726;7.080;2022-12-07T15:58:56;5.40;99.90
27900;DHT22;15243;50.726;7.080;2022-12-07T16:01:23;5.40;99.90
27900;DHT22;15243;50.726;7.080;2022-12-07T16:03:50;5.30;99.90
27900;DHT22;15243;50.726;7.080;2022-12-07T16:06:17;5.30;99.90
27900;DHT22;15243;50.726;7.080;2022-12-07T16:08:46;5.50;99.90
27900;DHT22;15243;50.726;7.080;2022-12-07T16:11:13;5.40;99.90
27900;DHT22;15243;50.726;7.080;2022-12-07T16:13:40;5.40;99.90
27900;DHT22;15243;50.726;7.080;2022-12-07T16:16:12;5.40;99.90
27900;DHT22;15243;50.726;7.080;2022-12-07T16:18:39;5.40;99.90
27900;DHT22;15243;50.726;7.080;2022-12-07T16:21:06;5.30;99.90
27900;DHT22;15243;50.726;7.080;2022-12-07T16:23:33;5.50;99.90
27900;DHT22;15243;50.726;7.080;2022-12-07T16:26:20;5.30;99.90
27900;DHT22;15243;50.726;7.080;2022-12-07T16:28:52;5.30;99.90
27900;DHT22;15243;50.726;7.080;2022-12-07T16:31:21;5.20;99.90
27900;DHT22;15243;50.726;7.080;2022-12-07T16:33:49;5.30;99.90
27900;DHT22;15243;50.726;7.080;2022-12-07T16:36:17;5.30;99.90
27900;DHT22;15243;50.726;7.080;2022-12-07T16:39:05;5.30;99.90
27900;DHT22;15243;50.726;7.080;2022-12-07T16:41:32;5.30;99.90
27900;DHT22;15243;50.726;7.080;2022-12-07T16:44:04;5.20;99.90
27900;DHT22;15243;50.726;7.080;2022-12-07T16:46:35;5.40;99.90
27900;DHT22;15243;50.726;7.080;2022-12-07T16:49:03;5.40;99.90
27900;DHT22;15243;50.726;7.080;2022-12-07T16:51:30;5.50;99.90
27900;DHT22;15243;50.726;7.080;2022-12-07T16:53:57;5.40;99.90
27900;DHT22;15243;50.726;7.080;2022-12-07T16:56:25;5.40;99.90
27900;DHT22;15243;50.726;7.080;2022-12-07T16:58:53;5.30;99.90
27900;DHT22;15243;50.726;7.080;2022-12-07T17:01:22;5.20;99.90
27900;DHT22;15243;50.726;7.080;2022-12-07T17:03:49;5.10;99.90
27900;DHT22;15243;50.726;7.080;2022-12-07T17:06:18;5.20;99.90
27900;DHT22;15243;50.726;7.080;2022-12-07T17:08:48;5.20;99.90
27900;DHT22;15243;50.726;7.080;2022-12-07T17:11:26;5.20;99.90
27900;DHT22;15243;50.726;7.080;2022-12-07T17:13:54;5.30;99.90
27900;DHT22;15243;50.726;7.080;2022-12-07T17:16:56;5.30;99.90
27900;DHT22;15243;50.726;7.080;2022-12-07T17:19:23;5.20;99.90
27900;DHT22;15243;50.726;7.080;2022-12-07T17:21:49;5.10;99.90
27900;DHT22;15243;50.726;7.080;2022-12-07T17:24:17;5.00;99.90
27900;DHT22;15243;50.726;7.080;2022-12-07T17:26:45;4.90;99.90
27900;DHT22;15243;50.726;7.080;2022-12-07T17:29:14;4.90;99.90
27900;DHT22;15243;50.726;7.080;2022-12-07T17:31:41;4.90;99.90
27900;DHT22;15243;50.726;7.080;2022-12-07T17:34:16;4.90;99.90
27900;DHT22;15243;50.726;7.080;2022-12-07T17:36:43;4.90;99.90
27900;DHT22;15243;50.726;7.080;2022-12-07T17:39:14;5.00;99.90
27900;DHT22;15243;50.726;7.080;2022-12-07T17:41:42;4.90;99.90
27900;DHT22;15243;50.726;7.080;2022-12-07T17:44:27;4.90;99.90
27900;DHT22;15243;50.726;7.080;2022-12-07T17:46:54;4.90;99.90
27900;DHT22;15243;50.726;7.080;2022-12-07T17:49:25;4.90;99.90
27900;DHT22;15243;50.726;7.080;2022-12-07T17:51:52;4.90;99.90
27900;DHT22;15243;50.726;7.080;2022-12-07T17:54:38;4.80;99.90
27900;DHT22;15243;50.726;7.080;2022-12-07T17:57:04;4.80;99.90
27900;DHT22;15243;50.726;7.080;2022-12-07T17:59:31;4.80;99.90
27900;DHT22;15243;50.726;7.080;2022-12-07T18:01:58;4.80;99.90
27900;DHT22;15243;50.726;7.080;2022-12-07T18:04:25;4.70;99.90
27900;DHT22;15243;50.726;7.080;2022-12-07T18:06:54;4.80;99.90
27900;DHT22;15243;50.726;7.080;2022-12-07T18:09:21;4.80;99.90
27900;DHT22;15243;50.726;7.080;2022-12-07T18:11:49;4.90;99.90
27900;DHT22;15243;50.726;7.080;2022-12-07T18:14:16;4.80;99.90
27900;DHT22;15243;50.726;7.080;2022-12-07T18:16:43;4.80;99.90